Bassilevousa — SVCQ7 — position and weather

sailwx.info

Track history (hours):
 
Tides and Currents Weather Stations Pressure Air Temp Water Temp Dewpoint Dewpoint Depression Visibility Wind Speed Wind Dir Waves Ship Positions

Bassilevousa

Last reported at 2017-Nov-23 19:00 UTC. Time now 2017-Nov-23 22:19 UTC.
Position N 41°11' E 002°07'.

Length 183 m; draft 10.1 m.

Type: Ship. MMSI: 241522000.

Date/timePositionNaut miles runAvg speedWind from/ knotsBaromVisibWave heightAir tempDewpointWater temp
2017-Nov-23 19:00N 41°11' E 002°07'1 1.4
2017-Nov-23 18:24N 41°10' E 002°08'5 9.2
2017-Nov-23 17:54N 41°12' E 002°14'  
2017-Nov-16 12:14N 36°24' E 013°50'312.3
2017-Nov-16 11:59N 36°22' E 013°53'612.4
2017-Nov-16 11:30N 36°20' E 013°60'612.8
2017-Nov-16 10:59N 36°17' E 014°07'612.7
2017-Nov-16 10:30N 36°14' E 014°14'612.7
2017-Nov-16 10:00N 36°11' E 014°21'612.7
2017-Nov-16 09:30N 36°08' E 014°28'612.6
2017-Nov-16 09:00N 36°04' E 014°34'612.7
2017-Nov-16 08:30N 36°01' E 014°40'12 6.6
2017-Nov-16 06:38N 35°52' E 014°51'0 0.1
2017-Nov-16 06:23N 35°52' E 014°51'0 0.0
2017-Nov-16 04:10N 35°52' E 014°51'0 0.1
2017-Nov-16 03:49N 35°52' E 014°51'0 0.0
2017-Nov-16 02:04N 35°52' E 014°51'0 0.1
2017-Nov-16 01:57N 35°52' E 014°51'0 0.1
2017-Nov-16 01:30N 35°52' E 014°51'0 0.0
2017-Nov-15 19:43N 35°52' E 014°51'0 0.2
2017-Nov-15 19:25N 35°52' E 014°51'0 0.1
2017-Nov-15 17:51N 35°52' E 014°51'1 0.1
2017-Nov-15 11:19N 35°51' E 014°51'612.7
2017-Nov-15 10:52N 35°50' E 014°44'613.6
2017-Nov-15 10:26N 35°49' E 014°37'1 3.2
2017-Nov-15 10:00N 35°51' E 014°36'0 0.1
2017-Nov-15 09:15N 35°51' E 014°36'0 0.1
2017-Nov-15 09:00N 35°51' E 014°36'0 0.0
2017-Nov-15 08:30N 35°51' E 014°36'0 0.0
2017-Nov-15 07:32N 35°51' E 014°36'0 0.0
2017-Nov-15 07:20N 35°51' E 014°36'0 0.0
2017-Nov-15 06:50N 35°51' E 014°36'0 0.0
2017-Nov-14 13:55N 35°51' E 014°36'0 0.1
2017-Nov-14 13:20N 35°51' E 014°36'2 3.5
2017-Nov-14 12:48N 35°49' E 014°38'2 8.0
2017-Nov-14 12:30N 35°49' E 014°41'711.0
2017-Nov-14 11:52N 35°50' E 014°49'1 4.0
2017-Nov-14 11:30N 35°50' E 014°51'  
Track history (hours):
 
Tides and Currents Weather Stations Pressure Air Temp Water Temp Dewpoint Dewpoint Depression Visibility Wind Speed Wind Dir Waves Ship Positions

Bassilevousa

Last reported at 2017-Nov-23 19:00 UTC. Time now 2017-Nov-23 22:19 UTC.
Position N 41°11' E 002°07'.

Length 183 m; draft 10.1 m.

Type: Ship. MMSI: 241522000.

Date/timePositionNaut miles runAvg speedWind from/ knotsBaromVisibWave heightAir tempDewpointWater temp
2017-Nov-23 19:00N 41°11' E 002°07'1 1.4
2017-Nov-23 18:24N 41°10' E 002°08'5 9.2
2017-Nov-23 17:54N 41°12' E 002°14'  
2017-Nov-16 12:14N 36°24' E 013°50'312.3
2017-Nov-16 11:59N 36°22' E 013°53'612.4
2017-Nov-16 11:30N 36°20' E 013°60'612.8
2017-Nov-16 10:59N 36°17' E 014°07'612.7
2017-Nov-16 10:30N 36°14' E 014°14'612.7
2017-Nov-16 10:00N 36°11' E 014°21'612.7
2017-Nov-16 09:30N 36°08' E 014°28'612.6
2017-Nov-16 09:00N 36°04' E 014°34'612.7
2017-Nov-16 08:30N 36°01' E 014°40'12 6.6
2017-Nov-16 06:38N 35°52' E 014°51'0 0.1
2017-Nov-16 06:23N 35°52' E 014°51'0 0.0
2017-Nov-16 04:10N 35°52' E 014°51'0 0.1
2017-Nov-16 03:49N 35°52' E 014°51'0 0.0
2017-Nov-16 02:04N 35°52' E 014°51'0 0.1
2017-Nov-16 01:57N 35°52' E 014°51'0 0.1
2017-Nov-16 01:30N 35°52' E 014°51'0 0.0
2017-Nov-15 19:43N 35°52' E 014°51'0 0.2
2017-Nov-15 19:25N 35°52' E 014°51'0 0.1
2017-Nov-15 17:51N 35°52' E 014°51'1 0.1
2017-Nov-15 11:19N 35°51' E 014°51'612.7
2017-Nov-15 10:52N 35°50' E 014°44'613.6
2017-Nov-15 10:26N 35°49' E 014°37'1 3.2
2017-Nov-15 10:00N 35°51' E 014°36'0 0.1
2017-Nov-15 09:15N 35°51' E 014°36'0 0.1
2017-Nov-15 09:00N 35°51' E 014°36'0 0.0
2017-Nov-15 08:30N 35°51' E 014°36'0 0.0
2017-Nov-15 07:32N 35°51' E 014°36'0 0.0
2017-Nov-15 07:20N 35°51' E 014°36'0 0.0
2017-Nov-15 06:50N 35°51' E 014°36'0 0.0
2017-Nov-14 13:55N 35°51' E 014°36'0 0.1
2017-Nov-14 13:20N 35°51' E 014°36'2 3.5
2017-Nov-14 12:48N 35°49' E 014°38'2 8.0
2017-Nov-14 12:30N 35°49' E 014°41'711.0
2017-Nov-14 11:52N 35°50' E 014°49'1 4.0
2017-Nov-14 11:30N 35°50' E 014°51'  

Dump ship's entire track history